Airfield :
LOGIN :

Register | Disclaimer

   EN    FR    IT 

 










Legend :    VFR   Marginal VFR   IFR   Intensive IFR   Very Intensive IFR
Visi :
Ceiling :
>= 8 km
>= 3000ft
5 to 8 km
1000 to 3000 ft
1500m to 5 km
500 to 1000 ft
800 to 1500m
200 to 500 ft
< 800m
< 200 ft
Symbols :   Thunderstorms  Fog  Heavy snow  Heavy precipitations  Wind > 20 kt
SIGMETs :     Misc.  Thunderstorms  Icing  Turbulence  Mountain Waves  Volcanic Ashes






- Airport Elevation : 357 ft
- IATA code : TUF


LFOT - Tours

CURRENT METAR :
  • 290630Z AUTO 22008KT 180V240 9999 BKN009 BKN023 OVC096 14/13 Q1016 TEMPO 4000 -RA

EXPIRED METARs :
  • 290600Z AUTO 22007KT 9999 BKN008 BKN019 BKN031 14/13 Q1016 TEMPO 4000 -RA
  • 290530Z AUTO 20006KT 9999 FEW007 SCT019 OVC033 13/12 Q1016 TEMPO 3000 -RADZ BKN006
  • 290500Z AUTO 21007KT 9999 BKN008/// BKN035/// OVC094/// ///TCU 13/12 Q1016 TEMPO 3000 -RADZ BKN006
  • 290430Z AUTO 21006KT 170V240 6000 -RA BKN008/// BKN014/// OVC054/// ///TCU 13/12 Q1016 TEMPO 3000 -RADZ BKN006
  • 290400Z AUTO 21006KT 180V250 9999 SCT009/// BKN017/// OVC029/// ///TCU 13/12 Q1016 TEMPO 3000 -RADZ BKN006
  • 290330Z AUTO 22008KT 9999 FEW017/// BKN029/// OVC039/// ///CB 13/12 Q1017 TEMPO 3000 -RADZ BKN006
  • 290300Z AUTO 21006KT 9999 -RA BKN023/// OVC038/// //////CB 13/12 Q1016 TEMPO BKN006
  • 290230Z AUTO 22008KT 9999 BKN023/// BKN040/// BKN100/// //////CB 13/12 Q1017 TEMPO BKN006
  • 290200Z AUTO 22008KT 9999 FEW025/// SCT120/// OVC140/// ///CB 14/11 Q1017 TEMPO BKN006

TAF TAF LFOT
Valid from the 29 at 06:00 until the 30 at 06:00 UTC


290500Z 2906/3006 24010KT 9999 BKN012
TEMPO 2906/2909 4000 -RA BKN007
TEMPO 2909/2919 2500 -RADZ BKN003
TEMPO 2919/2923 4000 -RA BKN005
BECMG 2923/3002 FEW040



MET'MAP, your aeronautical weather chart ! - Copyright ORBIFLY December 2007 - Disclaimer

ORBIFLY MET'MAP TEAM :

Programming & Development : Alexandra Zaïnal
Original concept : Baudouin d'Aumeries
Technical & hardware support : Manuel Goepfert
Assistance : Marc-Olivier Méhu




SOURCES & CREDITS :

   NOAA